createdAt,value
2023-05-01T00:01:52.589Z,2.70
2023-05-01T00:04:19.654Z,2.47
2023-05-01T00:06:47.031Z,2.00
2023-05-01T00:09:14.113Z,1.83
2023-05-01T00:11:41.029Z,2.30
2023-05-01T00:14:08.050Z,2.17
2023-05-01T00:16:36.308Z,2.40
2023-05-01T00:19:04.741Z,2.20
2023-05-01T00:21:31.864Z,2.00
2023-05-01T00:23:58.918Z,2.23
2023-05-01T00:26:30.455Z,2.33
2023-05-01T00:28:58.522Z,2.30
2023-05-01T00:31:26.090Z,1.70
2023-05-01T00:33:53.327Z,2.43
2023-05-01T00:36:22.812Z,2.13
2023-05-01T00:38:49.783Z,2.20
2023-05-01T00:41:16.765Z,2.50
2023-05-01T00:43:43.908Z,1.73
2023-05-01T00:46:11.379Z,1.90
2023-05-01T00:48:38.636Z,2.13
2023-05-01T00:51:07.714Z,2.20
2023-05-01T00:53:35.212Z,1.90
2023-05-01T00:56:02.405Z,2.43
2023-05-01T00:58:30.168Z,2.10
2023-05-01T01:00:57.438Z,1.90
2023-05-01T01:03:24.626Z,2.07
2023-05-01T01:06:05.783Z,1.47
2023-05-01T01:08:53.246Z,2.13
2023-05-01T01:11:26.165Z,1.60
2023-05-01T01:13:58.541Z,1.83
2023-05-01T01:16:46.360Z,2.20
2023-05-01T01:19:19.362Z,2.60
2023-05-01T01:21:48.948Z,1.73
2023-05-01T01:24:37.358Z,2.00
2023-05-01T01:27:27.993Z,1.90
2023-05-01T01:30:00.565Z,2.17
2023-05-01T01:32:49.609Z,1.60
2023-05-01T01:35:24.284Z,2.00
2023-05-01T01:38:16.832Z,2.03
2023-05-01T01:41:24.975Z,2.10
2023-05-01T01:44:00.939Z,2.40
2023-05-01T01:46:28.808Z,1.83
2023-05-01T01:48:57.964Z,2.10
2023-05-01T01:51:27.090Z,2.40
2023-05-01T01:53:57.121Z,1.80
2023-05-01T01:56:28.350Z,1.70
2023-05-01T01:58:56.024Z,2.20
2023-05-01T02:01:24.564Z,1.80
2023-05-01T02:03:53.357Z,1.43
2023-05-01T02:06:23.117Z,1.70
2023-05-01T02:08:51.077Z,1.67
2023-05-01T02:11:22.122Z,1.70
2023-05-01T02:13:50.870Z,2.00
2023-05-01T02:16:19.505Z,1.80
2023-05-01T02:18:47.360Z,1.80
2023-05-01T02:21:15.222Z,2.07
2023-05-01T02:23:42.541Z,1.70
2023-05-01T02:26:17.200Z,1.60
2023-05-01T02:28:44.384Z,2.10
2023-05-01T02:31:11.624Z,1.90
2023-05-01T02:33:38.745Z,2.00
2023-05-01T02:36:06.213Z,2.10
2023-05-01T02:38:33.176Z,1.80
2023-05-01T02:41:02.023Z,2.40
2023-05-01T02:43:32.488Z,1.93
2023-05-01T02:46:01.536Z,1.90
2023-05-01T02:48:30.851Z,1.90
2023-05-01T02:50:58.848Z,1.67
2023-05-01T02:53:25.797Z,1.50
2023-05-01T02:55:52.986Z,1.97
2023-05-01T02:58:21.826Z,1.90
2023-05-01T03:00:50.098Z,1.97
2023-05-01T03:03:17.625Z,2.00
2023-05-01T03:05:44.755Z,2.03
2023-05-01T03:08:12.818Z,2.23
2023-05-01T03:10:43.430Z,1.90
2023-05-01T03:13:11.574Z,1.40
2023-05-01T03:15:39.090Z,2.83
2023-05-01T03:18:06.810Z,1.97
2023-05-01T03:20:34.181Z,1.90
2023-05-01T03:23:01.676Z,2.13
2023-05-01T03:25:28.737Z,2.00
2023-05-01T03:27:55.763Z,2.00
2023-05-01T03:30:22.745Z,2.00
2023-05-01T03:32:49.795Z,1.70
2023-05-01T03:35:16.853Z,1.93
2023-05-01T03:37:43.822Z,1.90
2023-05-01T03:40:12.727Z,2.00
2023-05-01T03:42:39.655Z,2.10
2023-05-01T03:45:07.043Z,2.00
2023-05-01T03:47:34.046Z,1.80
2023-05-01T03:50:01.971Z,1.97
2023-05-01T03:52:28.915Z,1.83
2023-05-01T03:54:55.972Z,2.20
2023-05-01T03:57:23.434Z,2.27
2023-05-01T03:59:50.553Z,2.30
2023-05-01T04:02:17.621Z,2.00
2023-05-01T04:04:44.816Z,2.10
2023-05-01T04:07:12.223Z,2.33
2023-05-01T04:09:39.187Z,2.20
2023-05-01T04:12:06.424Z,1.90
2023-05-01T04:14:33.361Z,2.33
2023-05-01T04:17:00.661Z,1.70
2023-05-01T04:19:28.011Z,2.13
2023-05-01T04:21:55.267Z,1.80
2023-05-01T04:24:22.268Z,1.93
2023-05-01T04:26:49.826Z,2.10
2023-05-01T04:29:16.760Z,2.10
2023-05-01T04:31:43.763Z,2.47
2023-05-01T04:34:10.794Z,1.90
2023-05-01T04:36:37.773Z,1.80
2023-05-01T04:39:05.472Z,1.70
2023-05-01T04:41:32.467Z,2.00
2023-05-01T04:43:59.370Z,2.30
2023-05-01T04:46:26.505Z,2.10
2023-05-01T04:48:53.787Z,2.20
2023-05-01T04:51:20.700Z,2.53
2023-05-01T04:53:47.863Z,2.10
2023-05-01T04:56:14.874Z,2.10
2023-05-01T04:58:42.265Z,2.60
2023-05-01T05:01:09.325Z,1.93
2023-05-01T05:03:36.454Z,2.13
2023-05-01T05:06:03.737Z,2.13
2023-05-01T05:08:32.129Z,2.87
2023-05-01T05:11:02.567Z,2.17
2023-05-01T05:13:29.646Z,2.10
2023-05-01T05:15:56.795Z,2.20
2023-05-01T05:18:23.847Z,1.90
2023-05-01T05:20:51.004Z,2.10
2023-05-01T05:23:17.973Z,2.03
2023-05-01T05:25:44.908Z,2.30
2023-05-01T05:28:11.871Z,1.83
2023-05-01T05:30:38.900Z,2.23
2023-05-01T05:33:08.854Z,2.50
2023-05-01T05:35:35.832Z,2.00
2023-05-01T05:38:03.246Z,2.20
2023-05-01T05:40:30.375Z,2.43
2023-05-01T05:42:57.379Z,2.00
2023-05-01T05:45:24.429Z,2.40
2023-05-01T05:47:51.532Z,7.20
2023-05-01T05:50:18.522Z,2.30
2023-05-01T05:52:45.686Z,2.63
2023-05-01T05:55:12.622Z,2.67
2023-05-01T05:57:39.745Z,2.73
2023-05-01T06:00:09.433Z,2.83
2023-05-01T06:02:36.702Z,2.23
2023-05-01T06:05:04.577Z,2.77
2023-05-01T06:07:31.752Z,2.40
2023-05-01T06:10:05.165Z,3.00
2023-05-01T06:12:33.481Z,2.37
2023-05-01T06:15:02.699Z,2.23
2023-05-01T06:17:29.711Z,2.50
2023-05-01T06:19:57.089Z,2.50
2023-05-01T06:22:24.311Z,2.43
2023-05-01T06:24:52.023Z,2.47
2023-05-01T06:27:19.032Z,2.43
2023-05-01T06:29:45.987Z,2.60
2023-05-01T06:32:12.924Z,2.73
2023-05-01T06:34:39.891Z,2.77
2023-05-01T06:37:07.769Z,3.20
2023-05-01T06:39:34.713Z,2.60
2023-05-01T06:42:03.455Z,3.00
2023-05-01T06:44:32.741Z,2.73
2023-05-01T06:47:01.819Z,2.60
2023-05-01T06:49:28.980Z,2.63
2023-05-01T06:51:56.090Z,2.10
2023-05-01T06:54:22.983Z,2.80
2023-05-01T06:56:49.944Z,2.77
2023-05-01T06:59:16.966Z,3.47
2023-05-01T07:01:44.007Z,2.80
2023-05-01T07:04:11.172Z,2.57
2023-05-01T07:06:38.173Z,1.90
2023-05-01T07:09:05.651Z,2.50
2023-05-01T07:11:33.182Z,2.33
2023-05-01T07:14:01.354Z,2.77
2023-05-01T07:16:28.369Z,2.97
2023-05-01T07:18:55.477Z,2.50
2023-05-01T07:21:22.476Z,3.00
2023-05-01T07:23:49.401Z,2.83
2023-05-01T07:26:16.820Z,3.00
2023-05-01T07:28:43.832Z,2.90
2023-05-01T07:31:10.779Z,2.97
2023-05-01T07:33:37.988Z,2.50
2023-05-01T07:36:05.158Z,2.43
2023-05-01T07:38:32.422Z,2.53
2023-05-01T07:40:59.413Z,2.80
2023-05-01T07:43:26.429Z,2.37
2023-05-01T07:45:59.085Z,2.60
2023-05-01T07:48:29.991Z,3.17
2023-05-01T07:50:57.247Z,3.10
2023-05-01T07:53:24.186Z,2.43
2023-05-01T07:55:51.190Z,3.63
2023-05-01T07:58:18.323Z,3.07
2023-05-01T08:00:45.628Z,2.90
2023-05-01T08:03:13.388Z,2.70
2023-05-01T08:05:42.252Z,2.73
2023-05-01T08:08:09.887Z,3.17
2023-05-01T08:10:37.244Z,2.73
2023-05-01T08:13:04.298Z,2.50
2023-05-01T08:15:31.301Z,2.90
2023-05-01T08:17:58.334Z,3.13
2023-05-01T08:20:25.390Z,2.77
2023-05-01T08:22:52.375Z,2.60
2023-05-01T08:25:19.428Z,2.60
2023-05-01T08:27:46.419Z,2.93
2023-05-01T08:30:13.434Z,2.80
2023-05-01T08:32:40.621Z,2.40
2023-05-01T08:35:07.933Z,3.30
2023-05-01T08:37:35.324Z,2.63
2023-05-01T08:40:08.478Z,3.17
2023-05-01T08:42:37.354Z,3.23
2023-05-01T08:45:10.932Z,2.67
2023-05-01T08:47:40.180Z,2.60
2023-05-01T08:50:12.049Z,3.30
2023-05-01T08:52:44.890Z,2.87
2023-05-01T08:55:16.011Z,2.93
2023-05-01T08:57:47.484Z,2.30
2023-05-01T09:00:20.266Z,3.30
2023-05-01T09:02:49.141Z,3.13
2023-05-01T09:05:17.380Z,2.57
2023-05-01T09:07:46.718Z,2.70
2023-05-01T09:10:15.460Z,2.80
2023-05-01T09:12:46.155Z,2.80
2023-05-01T09:15:13.643Z,2.43
2023-05-01T09:17:41.641Z,3.73
2023-05-01T09:20:09.182Z,3.27
2023-05-01T09:22:36.770Z,2.90
2023-05-01T09:25:04.365Z,3.07
2023-05-01T09:27:35.835Z,4.43
2023-05-01T09:30:03.551Z,2.70
2023-05-01T09:32:30.795Z,2.53
2023-05-01T09:35:15.414Z,2.60
2023-05-01T09:37:42.534Z,2.93
2023-05-01T09:40:14.855Z,3.00
2023-05-01T09:42:53.178Z,2.47
2023-05-01T09:45:20.454Z,2.80
2023-05-01T09:47:47.580Z,3.53
2023-05-01T09:50:34.816Z,2.90
2023-05-01T09:53:04.720Z,2.13
2023-05-01T09:55:32.317Z,2.07
2023-05-01T09:57:59.497Z,2.50
2023-05-01T10:00:26.860Z,2.23
2023-05-01T10:02:54.164Z,2.83
2023-05-01T10:05:21.336Z,2.40
2023-05-01T10:07:59.411Z,2.37
2023-05-01T10:10:26.757Z,2.70
2023-05-01T10:12:53.971Z,1.90
2023-05-01T10:15:25.966Z,2.50
2023-05-01T10:17:54.693Z,2.40
2023-05-01T10:20:22.142Z,2.13
2023-05-01T10:22:49.729Z,2.20
2023-05-01T10:25:18.282Z,2.50
2023-05-01T10:27:45.493Z,3.10
2023-05-01T10:30:12.964Z,2.43
2023-05-01T10:32:42.295Z,2.17
2023-05-01T10:35:14.128Z,2.70
2023-05-01T10:37:57.127Z,2.60
2023-05-01T10:40:48.012Z,3.07
2023-05-01T10:43:17.257Z,2.97
2023-05-01T10:45:48.653Z,2.83
2023-05-01T10:48:40.932Z,2.50
2023-05-01T10:51:11.545Z,2.87
2023-05-01T10:53:40.851Z,2.90
2023-05-01T10:56:25.920Z,2.80
2023-05-01T10:59:00.923Z,2.30
2023-05-01T11:01:35.233Z,2.87
2023-05-01T11:04:30.599Z,2.60
2023-05-01T11:07:08.367Z,2.90
2023-05-01T11:09:46.256Z,2.70
2023-05-01T11:12:37.101Z,3.23
2023-05-01T11:15:05.847Z,2.90
2023-05-01T11:17:42.700Z,2.90
2023-05-01T11:20:35.955Z,2.30
2023-05-01T11:23:03.108Z,2.30
2023-05-01T11:25:31.960Z,2.23
2023-05-01T11:28:01.985Z,2.37
2023-05-01T11:30:39.302Z,2.40
2023-05-01T11:33:09.121Z,2.63
2023-05-01T11:35:38.670Z,2.57
2023-05-01T11:38:05.846Z,2.90
2023-05-01T11:40:35.120Z,2.07
2023-05-01T11:43:04.329Z,1.97
2023-05-01T11:45:32.226Z,3.00
2023-05-01T11:48:02.169Z,2.97
2023-05-01T11:50:38.387Z,3.00
2023-05-01T11:53:17.755Z,1.67
2023-05-01T11:55:46.282Z,2.20
2023-05-01T11:58:13.533Z,2.40
2023-05-01T12:00:42.302Z,4.33
2023-05-01T12:03:12.592Z,2.03
2023-05-01T12:05:42.770Z,1.90
2023-05-01T12:08:21.449Z,2.27
2023-05-01T12:10:51.391Z,2.60
2023-05-01T12:13:18.823Z,3.47
2023-05-01T12:15:47.573Z,2.90
2023-05-01T12:18:16.105Z,2.63
2023-05-01T12:20:50.383Z,2.00
2023-05-01T12:23:18.542Z,2.50
2023-05-01T12:31:05.361Z,3.27
2023-05-01T12:33:32.642Z,2.10
2023-05-01T12:36:13.020Z,3.13
2023-05-01T12:38:40.058Z,3.10
2023-05-01T12:41:09.836Z,2.40
2023-05-01T12:43:38.382Z,2.47
2023-05-01T12:46:06.159Z,2.40
2023-05-01T12:48:34.366Z,2.83
2023-05-01T12:51:02.047Z,2.90
2023-05-01T12:53:32.838Z,2.83
2023-05-01T12:56:01.414Z,2.23
2023-05-01T12:58:38.304Z,2.70
2023-05-01T13:01:08.866Z,2.20
2023-05-01T13:03:38.519Z,2.10
2023-05-01T13:06:08.486Z,3.03
2023-05-01T13:08:51.834Z,2.17
2023-05-01T13:11:18.864Z,2.00
2023-05-01T13:13:47.673Z,2.43
2023-05-01T13:16:16.543Z,2.90
2023-05-01T13:18:47.872Z,2.37
2023-05-01T13:21:17.768Z,2.30
2023-05-01T13:24:04.610Z,2.40
2023-05-01T13:26:33.742Z,2.77
2023-05-01T13:29:03.412Z,1.90
2023-05-01T13:31:30.905Z,2.30
2023-05-01T13:34:01.247Z,2.47
2023-05-01T13:36:35.035Z,2.10
2023-05-01T13:39:02.651Z,2.63
2023-05-01T13:41:30.608Z,2.57
2023-05-01T13:43:57.891Z,2.20
2023-05-01T13:46:27.990Z,2.67
2023-05-01T13:48:55.251Z,2.33
2023-05-01T13:51:27.777Z,2.80
2023-05-01T13:53:58.834Z,2.47
2023-05-01T13:56:29.146Z,2.90
2023-05-01T13:59:02.419Z,2.53
2023-05-01T14:01:29.553Z,3.07
2023-05-01T14:03:57.515Z,2.50
2023-05-01T14:06:24.674Z,1.80
2023-05-01T14:08:52.328Z,2.33
2023-05-01T14:11:20.611Z,2.10
2023-05-01T14:13:51.089Z,2.10
2023-05-01T14:16:30.520Z,2.20
2023-05-01T14:19:05.134Z,2.83
2023-05-01T14:21:36.103Z,2.50
2023-05-01T14:24:04.470Z,2.50
2023-05-01T14:26:31.818Z,2.20
2023-05-01T14:28:58.756Z,2.17
2023-05-01T14:31:31.459Z,2.40
2023-05-01T14:34:03.911Z,4.33
2023-05-01T14:36:31.798Z,5.10
2023-05-01T14:39:03.924Z,2.20
2023-05-01T14:41:34.566Z,3.00
2023-05-01T14:44:06.099Z,2.33
2023-05-01T14:46:36.462Z,2.20
2023-05-01T14:49:03.501Z,2.00
2023-05-01T14:51:32.431Z,2.47
2023-05-01T14:54:00.276Z,2.80
2023-05-01T14:56:27.661Z,2.10
2023-05-01T14:58:54.727Z,2.30
2023-05-01T15:01:25.093Z,2.83
2023-05-01T15:03:53.457Z,2.50
2023-05-01T15:06:20.489Z,2.60
2023-05-01T15:08:47.794Z,2.17
2023-05-01T15:11:14.870Z,2.57
2023-05-01T15:13:44.360Z,3.50
2023-05-01T15:16:11.637Z,2.73
2023-05-01T15:18:39.459Z,3.30
2023-05-01T15:21:06.616Z,2.73
2023-05-01T15:23:33.826Z,3.13
2023-05-01T15:26:02.409Z,3.47
2023-05-01T15:28:30.357Z,4.67
2023-05-01T15:30:57.455Z,3.87
2023-05-01T15:33:37.364Z,4.53
2023-05-01T15:36:04.999Z,4.07
2023-05-01T15:38:32.112Z,5.40
2023-05-01T15:41:01.786Z,5.10
2023-05-01T15:43:28.868Z,4.07
2023-05-01T15:45:59.198Z,4.20
2023-05-01T15:48:33.915Z,4.60
2023-05-01T15:51:00.831Z,4.47
2023-05-01T15:53:28.027Z,5.00
2023-05-01T15:55:58.623Z,5.30
2023-05-01T15:58:25.545Z,6.03
2023-05-01T16:00:54.612Z,4.73
2023-05-01T16:03:21.966Z,6.03
2023-05-01T16:05:52.358Z,5.50
2023-05-01T16:08:19.564Z,5.97
2023-05-01T16:10:46.919Z,6.30
2023-05-01T16:13:14.217Z,5.80
2023-05-01T16:15:41.257Z,5.83
2023-05-01T16:18:08.977Z,6.67
2023-05-01T16:20:42.699Z,6.73
2023-05-01T16:23:10.227Z,7.33
2023-05-01T16:25:40.988Z,6.77
2023-05-01T16:28:08.042Z,6.03
2023-05-01T16:30:42.029Z,6.00
2023-05-01T16:33:19.032Z,5.93
2023-05-01T16:35:52.856Z,7.30
2023-05-01T16:38:23.718Z,6.67
2023-05-01T16:40:50.799Z,6.63
2023-05-01T16:43:20.316Z,6.93
2023-05-01T16:45:48.263Z,8.23
2023-05-01T16:48:23.720Z,5.73
2023-05-01T16:50:51.914Z,6.77
2023-05-01T16:53:19.162Z,6.23
2023-05-01T16:55:46.789Z,6.97
2023-05-01T16:58:13.900Z,7.23
2023-05-01T17:00:42.944Z,7.27
2023-05-01T17:03:10.224Z,7.60
2023-05-01T17:05:37.691Z,7.33
2023-05-01T17:08:04.818Z,6.93
2023-05-01T17:10:32.075Z,7.17
2023-05-01T17:13:02.121Z,7.43
2023-05-01T17:15:30.932Z,6.67
2023-05-01T17:18:00.394Z,6.53
2023-05-01T17:20:28.175Z,6.80
2023-05-01T17:22:57.555Z,6.90
2023-05-01T17:25:24.926Z,6.90
2023-05-01T17:27:55.360Z,7.73
2023-05-01T17:30:26.252Z,8.63
2023-05-01T17:32:54.119Z,7.33
2023-05-01T17:36:19.167Z,7.70
2023-05-01T17:38:46.234Z,7.20
2023-05-01T17:41:13.242Z,5.97
2023-05-01T17:43:40.176Z,7.40
2023-05-01T17:46:07.381Z,7.27
2023-05-01T17:48:34.389Z,7.43
2023-05-01T17:51:01.668Z,7.40
2023-05-01T17:53:31.575Z,7.37
2023-05-01T17:55:58.518Z,7.70
2023-05-01T17:58:25.624Z,7.77
2023-05-01T18:00:52.650Z,6.40
2023-05-01T18:03:19.725Z,6.50
2023-05-01T18:05:46.740Z,7.23
2023-05-01T18:08:13.787Z,7.80
2023-05-01T18:10:40.679Z,7.10
2023-05-01T18:13:07.804Z,6.83
2023-05-01T18:15:34.893Z,6.70
2023-05-01T18:18:16.186Z,5.77
2023-05-01T18:20:43.186Z,6.70
2023-05-01T18:23:10.407Z,6.27
2023-05-01T18:25:39.330Z,6.90
2023-05-01T18:28:06.727Z,6.73
2023-05-01T18:30:34.257Z,6.50
2023-05-01T18:33:01.238Z,6.67
2023-05-01T18:35:28.281Z,6.07
2023-05-01T18:37:55.327Z,6.03
2023-05-01T18:40:22.242Z,5.73
2023-05-01T18:42:49.344Z,4.73
2023-05-01T18:45:21.883Z,6.23
2023-05-01T18:47:48.959Z,6.63
2023-05-01T18:50:24.401Z,5.23
2023-05-01T18:52:53.975Z,5.60
2023-05-01T18:55:23.471Z,6.17
2023-05-01T18:57:50.465Z,6.33
2023-05-01T19:00:18.004Z,5.80
2023-05-01T19:02:51.378Z,5.70
2023-05-01T19:05:19.217Z,5.17
2023-05-01T19:07:46.601Z,5.87
2023-05-01T19:10:14.252Z,5.80
2023-05-01T19:12:42.128Z,7.27
2023-05-01T19:15:10.163Z,5.47
2023-05-01T19:17:37.433Z,5.70
2023-05-01T19:20:05.041Z,6.20
2023-05-01T19:22:32.018Z,5.30
2023-05-01T19:25:00.270Z,5.87
2023-05-01T19:27:29.462Z,5.53
2023-05-01T19:29:59.343Z,5.60
2023-05-01T19:32:28.584Z,5.70
2023-05-01T19:34:56.807Z,5.40
2023-05-01T19:37:23.916Z,5.33
2023-05-01T19:39:51.494Z,5.87
2023-05-01T19:42:18.557Z,5.10
2023-05-01T19:44:46.375Z,5.07
2023-05-01T19:47:13.341Z,5.73
2023-05-01T19:49:40.373Z,5.40
2023-05-01T19:52:07.260Z,5.67
2023-05-01T19:54:34.280Z,5.17
2023-05-01T19:57:02.048Z,5.13
2023-05-01T19:59:29.828Z,5.50
2023-05-01T20:01:59.638Z,5.90
2023-05-01T20:04:27.996Z,5.80
2023-05-01T20:06:55.058Z,5.90
2023-05-01T20:09:22.213Z,4.73
2023-05-01T20:11:49.259Z,5.60
2023-05-01T20:14:16.307Z,5.07
2023-05-01T20:16:43.395Z,4.90
2023-05-01T20:19:10.730Z,5.87
2023-05-01T20:21:37.692Z,4.90
2023-05-01T20:24:05.227Z,5.07
2023-05-01T20:26:32.206Z,5.50
2023-05-01T20:28:59.148Z,5.33
2023-05-01T20:31:26.195Z,5.53
2023-05-01T20:33:53.184Z,4.90
2023-05-01T20:36:20.403Z,4.40
2023-05-01T20:38:48.723Z,4.80
2023-05-01T20:41:15.705Z,4.87
2023-05-01T20:43:42.869Z,4.60
2023-05-01T20:46:10.060Z,5.10
2023-05-01T20:48:37.206Z,4.27
2023-05-01T20:51:04.165Z,4.50
2023-05-01T20:53:31.437Z,5.77
2023-05-01T20:56:01.383Z,4.97
2023-05-01T20:58:31.103Z,4.80
2023-05-01T21:00:58.772Z,4.70
2023-05-01T21:03:25.727Z,4.37
2023-05-01T21:05:53.540Z,4.13
2023-05-01T21:08:20.954Z,5.23
2023-05-01T21:10:47.846Z,4.63
2023-05-01T21:13:15.271Z,5.30
2023-05-01T21:15:42.513Z,5.03
2023-05-01T21:18:12.358Z,4.13
2023-05-01T21:20:40.188Z,5.03
2023-05-01T21:23:07.597Z,4.47
2023-05-01T21:25:34.740Z,4.63
2023-05-01T21:28:03.620Z,4.23
2023-05-01T21:30:33.735Z,5.10
2023-05-01T21:33:01.942Z,4.50
2023-05-01T21:35:30.271Z,4.77
2023-05-01T21:37:58.417Z,5.27
2023-05-01T21:40:26.369Z,4.87
2023-05-01T21:42:56.614Z,3.90
2023-05-01T21:45:24.745Z,4.30
2023-05-01T21:47:51.995Z,5.43
2023-05-01T21:50:20.824Z,4.43
2023-05-01T21:52:49.854Z,4.73
2023-05-01T21:55:19.677Z,4.00
2023-05-01T21:57:46.866Z,4.40
2023-05-01T22:00:14.245Z,4.40
2023-05-01T22:02:46.181Z,4.43
2023-05-01T22:05:14.979Z,4.40
2023-05-01T22:07:43.909Z,4.50
2023-05-01T22:10:12.990Z,5.20
2023-05-01T22:12:40.925Z,4.40
2023-05-01T22:15:09.487Z,4.53
2023-05-01T22:17:37.407Z,4.70
2023-05-01T22:20:08.052Z,5.37
2023-05-01T22:22:36.173Z,5.33
2023-05-01T22:25:04.039Z,4.07
2023-05-01T22:27:31.347Z,5.23
2023-05-01T22:29:58.525Z,4.10
2023-05-01T22:32:25.707Z,4.90
2023-05-01T22:34:52.692Z,5.17
2023-05-01T22:37:19.840Z,4.60
2023-05-01T22:39:46.984Z,4.40
2023-05-01T22:42:14.693Z,4.17
2023-05-01T22:44:41.641Z,4.40
2023-05-01T22:47:08.623Z,4.47
2023-05-01T22:49:38.389Z,3.97
2023-05-01T22:52:09.294Z,5.47
2023-05-01T22:54:36.258Z,4.30
2023-05-01T22:57:03.190Z,5.00
2023-05-01T22:59:30.242Z,4.20
2023-05-01T23:02:23.233Z,3.77
2023-05-01T23:04:48.322Z,4.70
2023-05-01T23:07:15.464Z,4.53
2023-05-01T23:09:42.393Z,4.00
2023-05-01T23:12:18.473Z,4.30
2023-05-01T23:14:46.812Z,3.60
2023-05-01T23:17:14.816Z,3.97
2023-05-01T23:19:45.418Z,3.70
2023-05-01T23:22:19.059Z,2.77
2023-05-01T23:24:50.971Z,2.43
2023-05-01T23:27:20.014Z,2.03
2023-05-01T23:29:54.015Z,1.40
2023-05-01T23:32:30.506Z,1.37
2023-05-01T23:35:13.677Z,1.20
2023-05-01T23:37:43.002Z,0.70
2023-05-01T23:40:10.226Z,0.70
2023-05-01T23:42:38.978Z,0.80
2023-05-01T23:45:09.655Z,0.80
2023-05-01T23:47:37.708Z,0.70
2023-05-01T23:50:06.023Z,0.63
2023-05-01T23:52:33.029Z,0.70
2023-05-01T23:55:02.788Z,0.80
2023-05-01T23:57:29.929Z,0.80
2023-05-01T23:59:56.973Z,0.70
